Terminal Aerodrome Forecast
Issued by NWS Des Moines, IA

Home | Current Version | Previous Version | Text Only | Print | Product List | Glossary On
Versions: 1 2 3 4 5 6 7 8 9 10 11 12 13 14 15 16 17 18 19 20 21 22 23 24
000
FTUS43 KDMX 301130 AAA
TAFDSM
TAF AMD
KDSM 301130Z 3012/3112 05013G21KT P6SM VCSH OVC007
     FM301400 04013G20KT 6SM BR VCSH OVC005
     FM302000 02012G18KT 6SM BR OVC012
     FM310200 36010KT P6SM OVC015=

USA.gov is the U.S. government's official web portal to all federal, state and local government web resources and services.